createdAt,value
2023-01-17T00:00:03.776Z,78.26
2023-01-17T00:02:36.785Z,78.28
2023-01-17T00:05:20.272Z,78.76
2023-01-17T00:08:03.183Z,78.30
2023-01-17T00:10:33.568Z,78.34
2023-01-17T00:13:05.587Z,78.20
2023-01-17T00:15:37.409Z,77.97
2023-01-17T00:18:10.322Z,78.17
2023-01-17T00:20:52.923Z,78.00
2023-01-17T00:23:37.766Z,77.96
2023-01-17T00:26:08.991Z,78.27
2023-01-17T00:28:38.460Z,77.89
2023-01-17T00:31:07.960Z,78.07
2023-01-17T00:33:38.068Z,78.16
2023-01-17T00:36:06.934Z,78.14
2023-01-17T00:38:36.616Z,77.88
2023-01-17T00:41:05.563Z,77.96
2023-01-17T00:43:48.278Z,78.51
2023-01-17T00:46:31.058Z,78.52
2023-01-17T00:49:16.335Z,78.86
2023-01-17T00:51:58.938Z,78.84
2023-01-17T00:54:41.534Z,78.99
2023-01-17T00:57:24.115Z,78.96
2023-01-17T01:00:07.457Z,78.94
2023-01-17T01:02:51.107Z,79.01
2023-01-17T01:05:36.732Z,78.42
2023-01-17T01:08:30.441Z,78.73
2023-01-17T01:11:13.043Z,78.78
2023-01-17T01:13:55.664Z,78.40
2023-01-17T01:16:38.287Z,78.87
2023-01-17T01:19:21.608Z,78.68
2023-01-17T01:22:06.837Z,78.46
2023-01-17T01:24:49.503Z,78.72
2023-01-17T01:27:32.222Z,78.61
2023-01-17T01:30:15.480Z,78.77
2023-01-17T01:32:58.254Z,78.26
2023-01-17T01:35:28.812Z,78.40
2023-01-17T01:38:05.197Z,78.23
2023-01-17T01:40:35.451Z,78.30
2023-01-17T01:43:06.159Z,78.20
2023-01-17T01:45:36.479Z,78.63
2023-01-17T01:48:10.037Z,78.28
2023-01-17T01:50:44.246Z,78.28
2023-01-17T01:53:17.858Z,78.37
2023-01-17T01:55:52.414Z,78.13
2023-01-17T01:58:25.981Z,78.16
2023-01-17T02:00:56.436Z,78.02
2023-01-17T02:03:32.262Z,78.04
2023-01-17T02:06:09.721Z,78.42
2023-01-17T02:08:43.083Z,78.08
2023-01-17T02:11:14.194Z,78.22
2023-01-17T02:13:45.955Z,78.18
2023-01-17T02:16:27.871Z,78.51
2023-01-17T02:19:08.028Z,78.38
2023-01-17T02:21:46.394Z,78.34
2023-01-17T02:24:46.130Z,78.11
2023-01-17T02:27:27.590Z,78.13
2023-01-17T02:30:31.701Z,78.00
2023-01-17T02:33:19.822Z,78.09
2023-01-17T02:36:04.355Z,77.91
2023-01-17T02:38:42.917Z,78.27
2023-01-17T02:41:19.698Z,77.96
2023-01-17T02:43:52.357Z,78.25
2023-01-17T02:46:25.255Z,78.19
2023-01-17T02:48:56.582Z,78.16
2023-01-17T02:51:49.179Z,78.38
2023-01-17T02:54:48.846Z,78.49
2023-01-17T02:57:35.726Z,78.37
2023-01-17T03:00:15.052Z,78.37
2023-01-17T03:03:00.353Z,78.59
2023-01-17T03:05:36.211Z,78.31
2023-01-17T03:08:08.281Z,78.54
2023-01-17T03:10:39.427Z,78.02
2023-01-17T03:13:09.554Z,78.53
2023-01-17T03:15:39.858Z,78.52
2023-01-17T03:18:16.427Z,78.51
2023-01-17T03:20:47.102Z,78.34
2023-01-17T03:23:17.463Z,78.19
2023-01-17T03:25:47.641Z,78.29
2023-01-17T03:28:18.000Z,78.36
2023-01-17T03:30:52.626Z,78.11
2023-01-17T03:33:26.609Z,78.33
2023-01-17T03:35:58.296Z,78.50
2023-01-17T03:38:28.886Z,78.65
2023-01-17T03:40:59.478Z,78.81
2023-01-17T03:43:29.586Z,78.90
2023-01-17T03:46:05.857Z,78.81
2023-01-17T03:48:38.694Z,78.40
2023-01-17T03:51:09.199Z,78.40
2023-01-17T03:53:39.305Z,78.37
2023-01-17T03:56:10.535Z,78.18
2023-01-17T03:58:40.716Z,78.44
2023-01-17T04:01:11.464Z,78.55
2023-01-17T04:03:44.510Z,78.76
2023-01-17T04:06:14.697Z,79.00
2023-01-17T04:08:45.174Z,78.78
2023-01-17T04:11:15.366Z,78.91
2023-01-17T04:13:45.710Z,79.10
2023-01-17T04:16:19.254Z,79.08
2023-01-17T04:18:52.177Z,78.83
2023-01-17T04:21:22.438Z,78.94
2023-01-17T04:23:52.855Z,78.34
2023-01-17T04:26:23.018Z,78.48
2023-01-17T04:28:53.272Z,78.52
2023-01-17T04:31:23.558Z,78.61
2023-01-17T04:33:56.393Z,78.37
2023-01-17T04:36:26.682Z,78.80
2023-01-17T04:38:56.881Z,78.75
2023-01-17T04:41:27.122Z,78.86
2023-01-17T04:43:57.294Z,79.71
2023-01-17T04:46:27.504Z,79.43
2023-01-17T04:49:00.702Z,80.64
2023-01-17T04:51:30.816Z,80.24
2023-01-17T04:54:01.107Z,79.63
2023-01-17T04:56:31.294Z,80.11
2023-01-17T04:59:01.623Z,80.13
2023-01-17T05:01:34.811Z,79.73
2023-01-17T05:04:07.974Z,79.74
2023-01-17T05:06:38.125Z,80.58
2023-01-17T05:09:08.377Z,81.12
2023-01-17T05:11:38.586Z,80.79
2023-01-17T05:14:08.831Z,80.42
2023-01-17T05:16:39.324Z,80.74
2023-01-17T05:19:12.074Z,80.35
2023-01-17T05:21:42.574Z,80.14
2023-01-17T05:24:12.737Z,79.95
2023-01-17T05:26:43.394Z,79.51
2023-01-17T05:29:20.293Z,79.88
2023-01-17T05:31:52.814Z,79.81
2023-01-17T05:34:25.591Z,80.21
2023-01-17T05:36:55.823Z,80.20
2023-01-17T05:39:26.600Z,79.95
2023-01-17T05:41:56.809Z,79.93
2023-01-17T05:44:27.872Z,80.13
2023-01-17T05:46:58.554Z,80.02
2023-01-17T05:49:32.085Z,79.78
2023-01-17T05:52:06.893Z,79.97
2023-01-17T05:54:37.007Z,79.51
2023-01-17T05:57:07.298Z,79.79
2023-01-17T05:59:37.756Z,79.37
2023-01-17T06:02:08.005Z,79.47
2023-01-17T06:04:40.866Z,79.80
2023-01-17T06:07:11.039Z,79.85
2023-01-17T06:09:41.302Z,80.25
2023-01-17T06:12:11.434Z,80.56
2023-01-17T06:14:41.615Z,80.85
2023-01-17T06:17:11.895Z,80.78
2023-01-17T06:19:46.823Z,80.98
2023-01-17T06:22:17.071Z,81.00
2023-01-17T06:24:47.332Z,80.75
2023-01-17T06:27:17.525Z,80.71
2023-01-17T06:29:47.781Z,80.47
2023-01-17T06:32:18.008Z,80.25
2023-01-17T06:34:50.800Z,80.61
2023-01-17T06:37:21.020Z,80.38
2023-01-17T06:39:51.191Z,81.15
2023-01-17T06:42:21.407Z,81.01
2023-01-17T06:44:51.623Z,81.05
2023-01-17T06:47:21.841Z,81.00
2023-01-17T06:49:54.783Z,81.43
2023-01-17T06:52:25.071Z,81.04
2023-01-17T06:54:55.233Z,81.18
2023-01-17T06:57:28.545Z,81.28
2023-01-17T06:59:58.823Z,81.93
2023-01-17T07:02:29.062Z,81.99
2023-01-17T07:05:05.334Z,81.98
2023-01-17T07:07:36.285Z,81.87
2023-01-17T07:10:07.043Z,82.15
2023-01-17T07:12:37.329Z,82.11
2023-01-17T07:15:08.604Z,82.29
2023-01-17T07:17:38.853Z,82.04
2023-01-17T07:20:13.670Z,81.94
2023-01-17T07:22:47.713Z,82.20
2023-01-17T07:25:18.057Z,82.37
2023-01-17T07:27:48.253Z,81.81
2023-01-17T07:30:19.229Z,81.60
2023-01-17T07:32:54.192Z,81.20
2023-01-17T07:35:28.892Z,80.92
2023-01-17T07:37:59.126Z,81.40
2023-01-17T07:40:29.298Z,81.38
2023-01-17T07:43:03.937Z,81.01
2023-01-17T07:45:34.178Z,81.12
2023-01-17T07:48:04.409Z,81.02
2023-01-17T07:50:37.412Z,80.72
2023-01-17T07:53:08.210Z,80.30
2023-01-17T07:55:38.366Z,80.05
2023-01-17T07:58:08.677Z,80.36
2023-01-17T08:00:39.139Z,79.69
2023-01-17T08:03:09.503Z,80.26
2023-01-17T08:05:42.330Z,79.45
2023-01-17T08:08:12.751Z,79.14
2023-01-17T08:10:43.030Z,78.68
2023-01-17T08:13:13.363Z,78.45
2023-01-17T08:15:43.712Z,78.34
2023-01-17T08:18:13.839Z,78.13
2023-01-17T08:20:47.160Z,77.89
2023-01-17T08:23:17.589Z,77.54
2023-01-17T08:25:47.789Z,77.56
2023-01-17T08:28:19.934Z,77.75
2023-01-17T08:30:50.131Z,77.89
2023-01-17T08:33:20.326Z,77.23
2023-01-17T08:35:59.028Z,77.65
2023-01-17T08:38:29.199Z,77.52
2023-01-17T08:41:02.864Z,77.05
2023-01-17T08:43:33.103Z,76.53
2023-01-17T08:46:06.481Z,76.56
2023-01-17T08:48:36.697Z,76.61
2023-01-17T08:51:10.130Z,76.43
2023-01-17T08:53:40.863Z,75.87
2023-01-17T08:56:12.159Z,75.30
2023-01-17T08:58:42.361Z,75.10
2023-01-17T09:01:12.915Z,75.04
2023-01-17T09:03:43.261Z,74.79
2023-01-17T09:06:18.330Z,74.36
2023-01-17T09:08:49.775Z,74.01
2023-01-17T09:11:20.677Z,74.38
2023-01-17T09:13:50.930Z,74.35
2023-01-17T09:16:21.153Z,73.66
2023-01-17T09:18:51.655Z,73.85
2023-01-17T09:21:27.769Z,73.53
2023-01-17T09:23:58.558Z,73.97
2023-01-17T09:26:30.349Z,73.66
2023-01-17T09:29:01.548Z,74.39
2023-01-17T09:31:31.876Z,72.94
2023-01-17T09:34:02.478Z,72.53
2023-01-17T09:36:35.387Z,72.27
2023-01-17T09:39:06.286Z,71.86
2023-01-17T09:41:39.149Z,72.45
2023-01-17T09:44:20.857Z,72.62
2023-01-17T09:46:53.288Z,75.98
2023-01-17T09:49:38.017Z,75.61
2023-01-17T09:52:14.774Z,73.15
2023-01-17T09:54:47.125Z,70.77
2023-01-17T09:57:31.570Z,70.46
2023-01-17T10:00:09.251Z,70.26
2023-01-17T10:02:57.613Z,70.90
2023-01-17T10:05:53.327Z,70.98
2023-01-17T10:08:43.476Z,71.88
2023-01-17T10:11:29.445Z,70.23
2023-01-17T10:14:10.128Z,70.23
2023-01-17T10:16:49.086Z,70.58
2023-01-17T10:19:34.329Z,70.64
2023-01-17T10:22:20.245Z,70.56
2023-01-17T10:25:19.087Z,70.79
2023-01-17T10:27:57.045Z,71.36
2023-01-17T10:30:32.003Z,70.99
2023-01-17T10:33:06.359Z,71.53
2023-01-17T10:35:41.017Z,70.65
2023-01-17T10:38:17.974Z,71.63
2023-01-17T10:40:55.019Z,70.30
2023-01-17T10:43:31.384Z,70.46
2023-01-17T10:46:01.700Z,71.33
2023-01-17T10:48:42.581Z,71.66
2023-01-17T10:51:24.705Z,71.59
2023-01-17T10:54:08.046Z,72.19
2023-01-17T10:56:43.174Z,71.89
2023-01-17T10:59:26.002Z,72.07
2023-01-17T11:01:56.898Z,71.88
2023-01-17T11:04:36.677Z,71.49
2023-01-17T11:07:15.321Z,71.56
2023-01-17T11:09:47.034Z,71.27
2023-01-17T11:12:27.946Z,71.84
2023-01-17T11:15:04.030Z,71.02
2023-01-17T11:17:35.537Z,70.21
2023-01-17T11:20:20.230Z,69.75
2023-01-17T11:23:09.159Z,68.95
2023-01-17T11:25:40.161Z,69.05
2023-01-17T11:28:24.217Z,68.09
2023-01-17T11:30:56.066Z,68.00
2023-01-17T11:33:45.449Z,67.20
2023-01-17T11:36:24.751Z,67.64
2023-01-17T11:39:00.155Z,67.13
2023-01-17T11:41:35.118Z,67.17
2023-01-17T11:44:25.119Z,65.21
2023-01-17T11:47:19.941Z,64.60
2023-01-17T11:49:51.753Z,63.91
2023-01-17T11:52:27.426Z,63.95
2023-01-17T11:54:58.852Z,62.92
2023-01-17T11:57:31.964Z,63.25
2023-01-17T12:00:16.780Z,61.85
2023-01-17T12:03:07.164Z,62.84
2023-01-17T12:05:54.799Z,62.24
2023-01-17T12:08:38.614Z,62.51
2023-01-17T12:11:17.319Z,61.95
2023-01-17T12:14:02.665Z,61.37
2023-01-17T12:16:47.825Z,61.88
2023-01-17T12:19:42.477Z,60.95
2023-01-17T12:22:35.165Z,60.83
2023-01-17T12:25:32.071Z,61.53
2023-01-17T12:28:19.007Z,61.10
2023-01-17T12:31:09.719Z,60.47
2023-01-17T12:33:51.223Z,60.94
2023-01-17T12:36:37.410Z,61.62
2023-01-17T12:39:14.431Z,62.74
2023-01-17T12:42:00.013Z,62.02
2023-01-17T12:44:44.412Z,62.10
2023-01-17T12:47:17.421Z,62.62
2023-01-17T12:49:57.637Z,62.83
2023-01-17T12:52:41.173Z,63.36
2023-01-17T12:55:19.401Z,64.02
2023-01-17T12:57:59.095Z,64.36
2023-01-17T13:00:31.549Z,64.77
2023-01-17T13:03:10.700Z,65.34
2023-01-17T13:05:48.748Z,64.51
2023-01-17T13:08:28.226Z,65.10
2023-01-17T13:11:03.885Z,64.69
2023-01-17T13:13:35.879Z,65.54
2023-01-17T13:16:13.487Z,65.08
2023-01-17T13:18:48.655Z,64.39
2023-01-17T13:21:35.954Z,63.73
2023-01-17T13:24:22.075Z,64.43
2023-01-17T13:27:07.659Z,64.32
2023-01-17T13:29:49.610Z,64.79
2023-01-17T13:32:41.775Z,65.20
2023-01-17T13:35:23.184Z,64.40
2023-01-17T13:38:16.333Z,64.02
2023-01-17T13:40:53.717Z,64.33
2023-01-17T13:43:29.618Z,64.07
2023-01-17T13:46:05.098Z,64.88
2023-01-17T13:48:38.326Z,65.22
2023-01-17T13:51:10.205Z,65.68
2023-01-17T13:54:05.278Z,66.52
2023-01-17T13:56:39.976Z,66.72
2023-01-17T13:59:32.063Z,66.85
2023-01-17T14:02:03.343Z,67.17
2023-01-17T14:05:03.520Z,67.50
2023-01-17T14:07:37.513Z,67.89
2023-01-17T14:10:31.758Z,68.35
2023-01-17T14:13:02.424Z,68.43
2023-01-17T14:15:36.568Z,68.90
2023-01-17T14:18:08.348Z,68.80
2023-01-17T14:20:53.191Z,69.06
2023-01-17T14:23:49.397Z,69.23
2023-01-17T14:26:36.799Z,70.07
2023-01-17T14:29:36.847Z,69.82
2023-01-17T14:32:11.770Z,70.30
2023-01-17T14:34:42.035Z,70.65
2023-01-17T14:37:21.336Z,71.04
2023-01-17T14:39:53.672Z,71.13
2023-01-17T14:42:28.548Z,71.36
2023-01-17T14:45:04.911Z,71.31
2023-01-17T14:47:39.443Z,71.64
2023-01-17T14:50:25.187Z,71.88
2023-01-17T14:53:17.640Z,72.12
2023-01-17T14:56:00.489Z,72.12
2023-01-17T14:58:37.774Z,71.85
2023-01-17T15:01:13.860Z,71.90
2023-01-17T15:03:49.613Z,71.69
2023-01-17T15:06:23.734Z,72.21
2023-01-17T15:08:54.780Z,71.58
2023-01-17T15:11:29.869Z,71.60
2023-01-17T15:14:05.950Z,71.16
2023-01-17T15:16:38.657Z,71.13
2023-01-17T15:19:15.269Z,71.19
2023-01-17T15:21:50.719Z,71.82
2023-01-17T15:24:23.336Z,71.47
2023-01-17T15:26:54.709Z,71.00
2023-01-17T15:29:30.346Z,71.56
2023-01-17T15:32:02.601Z,70.87
2023-01-17T15:34:34.933Z,70.99
2023-01-17T15:37:08.872Z,71.44
2023-01-17T15:39:40.341Z,71.70
2023-01-17T15:42:21.257Z,72.51
2023-01-17T15:44:57.771Z,72.40
2023-01-17T15:47:34.315Z,72.28
2023-01-17T15:50:26.774Z,72.32
2023-01-17T15:53:01.034Z,72.55
2023-01-17T15:55:35.275Z,71.94
2023-01-17T15:58:07.441Z,71.94
2023-01-17T16:00:45.278Z,72.35
2023-01-17T16:03:25.648Z,72.11
2023-01-17T16:05:57.953Z,71.49
2023-01-17T16:08:33.990Z,72.22
2023-01-17T16:11:08.604Z,71.76
2023-01-17T16:13:43.422Z,71.74
2023-01-17T16:16:20.312Z,71.60
2023-01-17T16:18:52.166Z,71.55
2023-01-17T16:21:30.080Z,71.01
2023-01-17T16:24:01.475Z,71.58
2023-01-17T16:26:31.853Z,71.89
2023-01-17T16:29:02.036Z,71.51
2023-01-17T16:31:35.572Z,71.52
2023-01-17T16:34:08.500Z,72.46
2023-01-17T16:36:38.694Z,72.12
2023-01-17T16:39:09.405Z,71.84
2023-01-17T16:41:39.598Z,71.98
2023-01-17T16:44:09.813Z,71.35
2023-01-17T16:46:42.635Z,71.27
2023-01-17T16:49:13.162Z,71.00
2023-01-17T16:51:43.543Z,71.17
2023-01-17T16:54:13.915Z,71.45
2023-01-17T16:56:44.058Z,70.83
2023-01-17T16:59:14.575Z,70.98
2023-01-17T17:01:49.454Z,70.81
2023-01-17T17:04:19.743Z,70.98
2023-01-17T17:06:49.927Z,71.72
2023-01-17T17:09:22.044Z,72.16
2023-01-17T17:11:52.618Z,71.65
2023-01-17T17:14:25.835Z,71.07
2023-01-17T17:17:02.455Z,70.36
2023-01-17T17:19:33.652Z,70.57
2023-01-17T17:22:06.753Z,70.13
2023-01-17T17:24:36.929Z,70.22
2023-01-17T17:27:07.197Z,70.58
2023-01-17T17:29:37.566Z,70.63
2023-01-17T17:32:11.744Z,70.71
2023-01-17T17:34:41.882Z,70.18
2023-01-17T17:37:12.227Z,70.35
2023-01-17T17:39:42.645Z,70.08
2023-01-17T17:42:13.663Z,70.27
2023-01-17T17:44:43.942Z,71.48
2023-01-17T17:47:18.027Z,70.94
2023-01-17T17:49:48.883Z,71.33
2023-01-17T17:52:19.211Z,71.80
2023-01-17T17:54:50.749Z,71.89
2023-01-17T17:57:20.932Z,71.74
2023-01-17T17:59:51.354Z,72.14
2023-01-17T18:02:25.536Z,71.99
2023-01-17T18:04:55.765Z,72.80
2023-01-17T18:07:26.277Z,73.69
2023-01-17T18:09:57.803Z,73.43
2023-01-17T18:12:28.150Z,74.01
2023-01-17T18:14:58.463Z,73.58
2023-01-17T18:17:32.515Z,74.02
2023-01-17T18:20:04.320Z,74.30
2023-01-17T18:22:36.358Z,75.26
2023-01-17T18:25:11.710Z,76.43
2023-01-17T18:27:42.567Z,76.55
2023-01-17T18:30:15.501Z,77.85
2023-01-17T18:32:51.338Z,77.70
2023-01-17T18:35:21.837Z,78.67
2023-01-17T18:37:52.547Z,78.46
2023-01-17T18:40:26.198Z,77.75
2023-01-17T18:42:57.016Z,79.01
2023-01-17T18:45:27.485Z,78.80
2023-01-17T18:48:02.713Z,79.30
2023-01-17T18:50:33.552Z,80.14
2023-01-17T18:53:04.050Z,79.90
2023-01-17T18:55:34.589Z,79.99
2023-01-17T18:58:09.266Z,80.53
2023-01-17T19:00:39.952Z,81.24
2023-01-17T19:03:16.085Z,80.74
2023-01-17T19:05:46.805Z,81.55
2023-01-17T19:08:18.822Z,81.45
2023-01-17T19:10:49.441Z,82.03
2023-01-17T19:13:19.933Z,82.41
2023-01-17T19:15:50.981Z,82.91
2023-01-17T19:18:24.049Z,82.90
2023-01-17T19:20:54.532Z,82.94
2023-01-17T19:23:25.353Z,82.81
2023-01-17T19:25:57.041Z,83.89
2023-01-17T19:28:29.126Z,82.81
2023-01-17T19:31:07.811Z,82.88
2023-01-17T19:33:43.761Z,82.31
2023-01-17T19:36:17.328Z,82.98
2023-01-17T19:39:03.418Z,83.18
2023-01-17T19:41:35.995Z,83.72
2023-01-17T19:44:08.764Z,82.51
2023-01-17T19:46:40.226Z,82.65
2023-01-17T19:49:19.829Z,82.99
2023-01-17T19:51:51.510Z,84.21
2023-01-17T19:54:23.400Z,83.18
2023-01-17T19:56:54.051Z,83.40
2023-01-17T19:59:24.526Z,82.47
2023-01-17T20:01:55.908Z,82.79
2023-01-17T20:04:29.441Z,82.99
2023-01-17T20:07:01.177Z,83.86
2023-01-17T20:09:31.843Z,84.51
2023-01-17T20:12:02.366Z,83.72
2023-01-17T20:14:32.726Z,83.03
2023-01-17T20:17:03.756Z,83.97
2023-01-17T20:19:36.951Z,84.11
2023-01-17T20:22:08.018Z,84.71
2023-01-17T20:24:38.279Z,83.79
2023-01-17T20:27:08.622Z,84.34
2023-01-17T20:29:41.193Z,83.78
2023-01-17T20:32:11.528Z,84.08
2023-01-17T20:34:45.518Z,84.35
2023-01-17T20:37:16.098Z,83.55
2023-01-17T20:39:48.081Z,82.93
2023-01-17T20:42:18.879Z,82.93
2023-01-17T20:44:51.043Z,84.57
2023-01-17T20:47:21.422Z,84.52
2023-01-17T20:49:55.005Z,85.12
2023-01-17T20:52:28.391Z,83.76
2023-01-17T20:54:58.953Z,84.24
2023-01-17T20:57:31.489Z,83.37
2023-01-17T21:00:01.666Z,83.44
2023-01-17T21:02:32.266Z,83.73
2023-01-17T21:05:05.194Z,83.86
2023-01-17T21:07:35.430Z,82.79
2023-01-17T21:10:05.997Z,83.45
2023-01-17T21:12:36.741Z,83.12
2023-01-17T21:15:08.626Z,83.12
2023-01-17T21:17:42.458Z,83.57
2023-01-17T21:20:16.892Z,82.83
2023-01-17T21:22:47.263Z,82.56
2023-01-17T21:25:19.574Z,82.54
2023-01-17T21:27:49.961Z,82.21
2023-01-17T21:30:20.386Z,82.34
2023-01-17T21:32:50.853Z,81.96
2023-01-17T21:35:23.620Z,82.29
2023-01-17T21:37:54.404Z,83.60
2023-01-17T21:40:25.470Z,82.94
2023-01-17T21:42:55.816Z,82.37
2023-01-17T21:45:26.367Z,82.09
2023-01-17T21:47:57.421Z,81.69
2023-01-17T21:50:33.567Z,81.18
2023-01-17T21:53:04.226Z,81.61
2023-01-17T21:55:46.824Z,82.03
2023-01-17T21:58:30.846Z,82.57
2023-01-17T22:01:09.028Z,81.76
2023-01-17T22:03:39.756Z,81.30
2023-01-17T22:06:13.088Z,81.28
2023-01-17T22:08:43.415Z,80.95
2023-01-17T22:11:16.641Z,80.75
2023-01-17T22:13:48.034Z,80.86
2023-01-17T22:16:20.239Z,80.74
2023-01-17T22:18:54.077Z,80.27
2023-01-17T22:21:28.377Z,81.04
2023-01-17T22:24:00.350Z,80.44
2023-01-17T22:26:32.991Z,80.44
2023-01-17T22:29:04.615Z,80.77
2023-01-17T22:31:38.915Z,80.39
2023-01-17T22:34:09.162Z,80.53
2023-01-17T22:36:42.572Z,80.93
2023-01-17T22:39:13.425Z,80.92
2023-01-17T22:41:43.757Z,80.97
2023-01-17T22:44:14.541Z,81.20
2023-01-17T22:46:44.835Z,80.48
2023-01-17T22:49:17.154Z,79.97
2023-01-17T22:51:50.150Z,80.74
2023-01-17T22:54:20.354Z,80.66
2023-01-17T22:56:50.610Z,81.01
2023-01-17T22:59:20.798Z,80.88
2023-01-17T23:01:52.223Z,81.03
2023-01-17T23:04:22.446Z,80.96
2023-01-17T23:06:55.361Z,81.25
2023-01-17T23:09:25.629Z,80.75
2023-01-17T23:11:57.169Z,81.48
2023-01-17T23:14:29.016Z,81.42
2023-01-17T23:17:15.824Z,81.56
2023-01-17T23:19:48.320Z,81.76
2023-01-17T23:22:23.357Z,81.74
2023-01-17T23:24:54.862Z,81.44
2023-01-17T23:27:40.026Z,81.81
2023-01-17T23:30:13.592Z,82.18
2023-01-17T23:32:47.631Z,82.47
2023-01-17T23:35:20.561Z,83.35
2023-01-17T23:38:05.926Z,82.89
2023-01-17T23:40:38.336Z,82.52
2023-01-17T23:43:21.703Z,82.57
2023-01-17T23:45:54.087Z,82.61
2023-01-17T23:48:30.116Z,83.30
2023-01-17T23:51:02.443Z,83.58
2023-01-17T23:53:35.522Z,84.10
2023-01-17T23:56:09.715Z,83.14
2023-01-17T23:58:40.378Z,82.98
